createdAt,value
2017-11-20T00:00:29.379Z,22.93
2017-11-20T00:02:59.049Z,17.27
2017-11-20T00:05:27.894Z,17.33
2017-11-20T00:07:56.738Z,23.43
2017-11-20T00:10:25.729Z,18.07
2017-11-20T00:12:54.570Z,19.50
2017-11-20T00:15:23.466Z,26.80
2017-11-20T00:17:52.328Z,23.27
2017-11-20T00:20:21.202Z,19.33
2017-11-20T00:22:50.046Z,21.97
2017-11-20T00:25:18.916Z,18.13
2017-11-20T00:27:47.821Z,19.40
2017-11-20T00:30:16.678Z,20.50
2017-11-20T00:32:45.554Z,23.60
2017-11-20T00:35:15.514Z,24.73
2017-11-20T00:37:44.375Z,24.53
2017-11-20T00:40:14.121Z,20.17
2017-11-20T00:42:43.852Z,15.77
2017-11-20T00:45:12.852Z,18.67
2017-11-20T00:47:41.717Z,21.33
2017-11-20T00:50:10.562Z,16.40
2017-11-20T00:52:39.416Z,20.13
2017-11-20T00:55:08.306Z,18.13
2017-11-20T00:57:37.162Z,17.10
2017-11-20T01:00:06.046Z,16.60
2017-11-20T01:02:34.911Z,19.63
2017-11-20T01:05:03.833Z,21.60
2017-11-20T01:07:32.690Z,16.70
2017-11-20T01:10:02.462Z,20.07
2017-11-20T01:12:31.353Z,19.10
2017-11-20T01:15:00.200Z,19.60
2017-11-20T01:17:29.065Z,19.23
2017-11-20T01:19:57.905Z,18.47
2017-11-20T01:22:26.738Z,21.70
2017-11-20T01:24:55.608Z,23.27
2017-11-20T01:27:24.461Z,20.00
2017-11-20T01:29:53.355Z,16.40
2017-11-20T01:32:22.240Z,18.67
2017-11-20T01:34:51.086Z,19.23
2017-11-20T01:37:20.602Z,17.63
2017-11-20T01:39:49.472Z,16.73
2017-11-20T01:42:18.347Z,16.80
2017-11-20T01:44:47.213Z,15.37
2017-11-20T01:47:16.104Z,17.77
2017-11-20T01:49:44.957Z,25.93
2017-11-20T01:52:13.800Z,13.87
2017-11-20T01:54:42.713Z,16.60
2017-11-20T01:57:11.550Z,19.97
2017-11-20T01:59:41.077Z,17.00
2017-11-20T02:02:09.940Z,16.23
2017-11-20T02:04:38.784Z,16.70
2017-11-20T02:07:08.201Z,15.30
2017-11-20T02:09:37.070Z,17.10
2017-11-20T02:12:05.954Z,19.03
2017-11-20T02:14:34.790Z,14.13
2017-11-20T02:17:03.654Z,13.43
2017-11-20T02:19:32.513Z,18.23
2017-11-20T02:22:01.384Z,15.23
2017-11-20T02:24:33.121Z,13.43
2017-11-20T02:27:01.976Z,15.10
2017-11-20T02:29:30.814Z,15.83
2017-11-20T02:32:00.617Z,17.37
2017-11-20T02:34:29.508Z,15.03
2017-11-20T02:36:58.399Z,15.97
2017-11-20T02:39:27.516Z,18.10
2017-11-20T02:41:56.386Z,17.33
2017-11-20T02:44:25.259Z,14.57
2017-11-20T02:46:54.117Z,20.23
2017-11-20T02:49:23.904Z,16.10
2017-11-20T02:51:52.754Z,15.97
2017-11-20T02:54:21.632Z,17.33
2017-11-20T02:56:50.490Z,21.20
2017-11-20T02:59:19.337Z,19.27
2017-11-20T03:01:48.237Z,21.20
2017-11-20T03:04:17.077Z,12.40
2017-11-20T03:06:45.928Z,15.53
2017-11-20T03:09:14.790Z,17.10
2017-11-20T03:11:43.642Z,18.27
2017-11-20T03:14:12.484Z,16.00
2017-11-20T03:16:41.380Z,15.93
2017-11-20T03:19:10.230Z,16.60
2017-11-20T03:21:39.071Z,15.80
2017-11-20T03:24:07.956Z,16.90
2017-11-20T03:26:36.802Z,10.90
2017-11-20T03:29:05.644Z,17.67
2017-11-20T03:31:34.532Z,18.33
2017-11-20T03:34:03.382Z,17.63
2017-11-20T03:36:32.227Z,14.03
2017-11-20T03:39:01.094Z,19.10
2017-11-20T03:41:29.943Z,14.77
2017-11-20T03:43:58.778Z,18.50
2017-11-20T03:46:28.714Z,16.43
2017-11-20T03:48:57.616Z,17.17
2017-11-20T03:51:26.488Z,19.90
2017-11-20T03:53:55.361Z,18.43
2017-11-20T03:56:24.201Z,18.10
2017-11-20T03:58:53.068Z,18.57
2017-11-20T04:01:21.951Z,17.53
2017-11-20T04:03:50.785Z,13.63
2017-11-20T04:06:19.629Z,21.00
2017-11-20T04:08:48.512Z,20.87
2017-11-20T04:11:17.355Z,15.17
2017-11-20T04:13:47.114Z,15.97
2017-11-20T04:16:15.974Z,18.00
2017-11-20T04:18:44.831Z,17.10
2017-11-20T04:21:13.698Z,16.13
2017-11-20T04:23:42.552Z,16.17
2017-11-20T04:26:11.422Z,16.60
2017-11-20T04:28:40.270Z,16.13
2017-11-20T04:31:09.140Z,12.30
2017-11-20T04:33:38.002Z,15.53
2017-11-20T04:36:06.882Z,14.00
2017-11-20T04:38:35.834Z,14.13
2017-11-20T04:41:04.696Z,13.07
2017-11-20T04:43:34.465Z,13.80
2017-11-20T04:46:03.373Z,14.30
2017-11-20T04:48:32.217Z,14.40
2017-11-20T04:51:01.083Z,16.53
2017-11-20T04:53:29.960Z,15.27
2017-11-20T04:55:58.817Z,21.23
2017-11-20T04:58:27.662Z,14.67
2017-11-20T05:00:57.090Z,13.33
2017-11-20T05:03:26.318Z,12.90
2017-11-20T05:05:55.151Z,14.13
2017-11-20T05:08:24.022Z,14.30
2017-11-20T05:10:52.871Z,14.73
2017-11-20T05:13:21.754Z,12.80
2017-11-20T05:15:50.632Z,15.47
2017-11-20T05:18:19.495Z,17.43
2017-11-20T05:20:48.336Z,19.33
2017-11-20T05:23:17.196Z,18.67
2017-11-20T05:25:46.036Z,14.10
2017-11-20T05:28:14.875Z,12.00
2017-11-20T05:30:43.749Z,19.00
2017-11-20T05:33:12.582Z,18.07
2017-11-20T05:35:41.433Z,14.00
2017-11-20T05:38:10.316Z,14.10
2017-11-20T05:40:39.176Z,12.10
2017-11-20T05:43:08.333Z,14.33
2017-11-20T05:45:37.196Z,18.37
2017-11-20T05:48:06.049Z,17.43
2017-11-20T05:50:35.071Z,17.70
2017-11-20T05:53:03.928Z,16.63
2017-11-20T05:55:33.473Z,14.40
2017-11-20T05:58:02.358Z,13.73
2017-11-20T06:00:31.233Z,15.87
2017-11-20T06:03:00.091Z,14.53
2017-11-20T06:05:28.955Z,17.73
2017-11-20T06:07:57.815Z,14.10
2017-11-20T06:10:26.668Z,13.00
2017-11-20T06:12:56.169Z,13.70
2017-11-20T06:15:25.045Z,15.93
2017-11-20T06:17:53.886Z,22.43
2017-11-20T06:20:22.734Z,17.07
2017-11-20T06:22:51.613Z,16.90
2017-11-20T06:25:20.454Z,15.50
2017-11-20T06:27:49.309Z,17.77
2017-11-20T06:30:18.184Z,17.20
2017-11-20T06:32:47.037Z,16.97
2017-11-20T06:35:15.901Z,18.37
2017-11-20T06:37:44.753Z,17.27
2017-11-20T06:40:13.601Z,19.33
2017-11-20T06:42:42.449Z,14.50
2017-11-20T06:45:11.353Z,19.67
2017-11-20T06:47:40.192Z,18.33
2017-11-20T06:50:09.051Z,15.83
2017-11-20T06:52:38.011Z,16.90
2017-11-20T06:55:06.845Z,19.33
2017-11-20T06:57:35.686Z,16.10
2017-11-20T07:00:05.417Z,18.90
2017-11-20T07:02:35.052Z,19.50
2017-11-20T07:05:03.905Z,16.43
2017-11-20T07:07:32.829Z,17.50
2017-11-20T07:10:01.696Z,20.37
2017-11-20T07:12:30.554Z,15.57
2017-11-20T07:14:59.422Z,15.93
2017-11-20T07:17:28.265Z,14.03
2017-11-20T07:19:57.101Z,16.03
2017-11-20T07:22:25.953Z,20.50
2017-11-20T07:24:54.844Z,16.30
2017-11-20T07:27:29.575Z,14.93
2017-11-20T07:30:04.229Z,16.67
2017-11-20T07:32:33.090Z,14.80
2017-11-20T07:35:01.932Z,14.30
2017-11-20T07:37:36.629Z,16.33
2017-11-20T07:40:11.932Z,15.27
2017-11-20T07:42:40.803Z,17.40
2017-11-20T07:45:10.123Z,18.23
2017-11-20T07:47:38.967Z,19.30
2017-11-20T07:50:07.837Z,19.93
2017-11-20T07:52:36.670Z,16.47
2017-11-20T07:55:05.516Z,18.93
2017-11-20T07:57:34.398Z,15.40
2017-11-20T08:00:03.243Z,15.90
2017-11-20T08:02:32.123Z,14.97
2017-11-20T08:05:00.985Z,13.23
2017-11-20T08:07:29.834Z,15.90
2017-11-20T08:09:58.674Z,18.67
2017-11-20T08:12:27.563Z,28.47
2017-11-20T08:14:56.423Z,13.57
2017-11-20T08:17:25.925Z,14.57
2017-11-20T08:19:54.787Z,14.97
2017-11-20T08:22:23.908Z,22.23
2017-11-20T08:24:52.745Z,26.33
2017-11-20T08:27:21.610Z,18.20
2017-11-20T08:29:50.459Z,16.17
2017-11-20T08:32:19.300Z,15.77
2017-11-20T08:34:48.733Z,13.83
2017-11-20T08:37:17.588Z,14.97
2017-11-20T08:39:46.440Z,19.73
2017-11-20T08:42:15.314Z,17.43
2017-11-20T08:44:44.169Z,13.70
2017-11-20T08:47:13.016Z,12.27
2017-11-20T08:49:41.892Z,28.97
2017-11-20T08:52:10.791Z,21.10
2017-11-20T08:54:40.169Z,17.27
2017-11-20T08:57:09.061Z,16.93
2017-11-20T08:59:38.555Z,17.43
2017-11-20T09:02:07.413Z,24.20
2017-11-20T09:04:36.285Z,18.20
2017-11-20T09:07:05.129Z,13.13
2017-11-20T09:09:34.501Z,18.53
2017-11-20T09:12:03.464Z,15.87
2017-11-20T09:14:32.308Z,27.30
2017-11-20T09:17:01.140Z,27.30
2017-11-20T09:19:30.023Z,15.43
2017-11-20T09:21:58.867Z,21.33
2017-11-20T09:24:27.710Z,22.53
2017-11-20T09:26:56.593Z,17.63
2017-11-20T09:29:25.993Z,23.27
2017-11-20T09:31:54.863Z,20.90
2017-11-20T09:34:24.585Z,18.70
2017-11-20T09:36:53.481Z,19.73
2017-11-20T09:39:22.329Z,25.20
2017-11-20T09:41:51.197Z,16.30
2017-11-20T09:44:20.647Z,18.50
2017-11-20T09:46:49.776Z,25.67
2017-11-20T09:49:18.646Z,20.60
2017-11-20T09:51:47.538Z,19.03
2017-11-20T09:54:16.388Z,22.47
2017-11-20T09:56:45.259Z,22.90
2017-11-20T09:59:14.134Z,21.37
2017-11-20T10:01:42.981Z,23.57
2017-11-20T10:04:11.852Z,20.27
2017-11-20T10:06:40.759Z,20.37
2017-11-20T10:09:09.604Z,19.87
2017-11-20T10:11:38.468Z,25.80
2017-11-20T10:14:07.314Z,21.30
2017-11-20T10:16:36.155Z,21.97
2017-11-20T10:19:05.025Z,22.77
2017-11-20T10:21:33.866Z,20.80
2017-11-20T10:24:03.413Z,25.93
2017-11-20T10:26:32.280Z,25.30
2017-11-20T10:29:01.369Z,23.07
2017-11-20T10:31:30.223Z,25.73
2017-11-20T10:34:00.175Z,24.50
2017-11-20T10:36:29.017Z,40.87
2017-11-20T10:38:57.863Z,17.27
2017-11-20T10:41:26.733Z,24.50
2017-11-20T10:43:55.586Z,21.60
2017-11-20T10:46:24.527Z,29.30
2017-11-20T10:48:53.383Z,32.23
2017-11-20T10:51:22.233Z,25.90
2017-11-20T10:53:51.065Z,26.07
2017-11-20T10:56:19.926Z,31.10
2017-11-20T10:58:48.813Z,30.70
2017-11-20T11:01:17.695Z,25.37
2017-11-20T11:03:46.569Z,27.00
2017-11-20T11:06:15.409Z,29.37
2017-11-20T11:08:44.944Z,34.73
2017-11-20T11:11:13.861Z,28.93
2017-11-20T11:13:42.702Z,29.10
2017-11-20T11:16:11.568Z,26.10
2017-11-20T11:18:40.496Z,32.67
2017-11-20T11:21:09.336Z,32.50
2017-11-20T11:23:38.192Z,31.67
2017-11-20T11:26:07.086Z,29.03
2017-11-20T11:28:35.972Z,28.33
2017-11-20T11:31:04.838Z,31.43
2017-11-20T11:33:33.703Z,38.90
2017-11-20T11:36:02.561Z,28.23
2017-11-20T11:38:31.409Z,30.03
2017-11-20T11:41:00.268Z,28.73
2017-11-20T11:43:30.029Z,28.77
2017-11-20T11:45:58.865Z,37.27
2017-11-20T11:48:27.725Z,30.50
2017-11-20T11:50:56.584Z,25.43
2017-11-20T11:53:25.441Z,33.77
2017-11-20T11:55:54.303Z,31.77
2017-11-20T11:58:23.161Z,31.97
2017-11-20T12:00:52.002Z,28.73
2017-11-20T12:03:20.898Z,29.83
2017-11-20T12:05:49.769Z,30.03
2017-11-20T12:08:18.681Z,31.30
2017-11-20T12:10:47.554Z,31.70
2017-11-20T12:13:17.861Z,33.33
2017-11-20T12:15:46.716Z,27.70
2017-11-20T12:18:15.602Z,26.67
2017-11-20T12:20:44.485Z,29.10
2017-11-20T12:23:13.328Z,29.83
2017-11-20T12:25:42.214Z,25.17
2017-11-20T12:28:11.068Z,20.70
2017-11-20T12:30:40.627Z,27.87
2017-11-20T12:33:09.513Z,20.40
2017-11-20T12:35:38.363Z,29.67
2017-11-20T12:38:07.223Z,24.90
2017-11-20T12:40:36.101Z,15.93
2017-11-20T12:43:05.284Z,29.80
2017-11-20T12:45:34.155Z,25.90
2017-11-20T12:48:03.191Z,31.80
2017-11-20T12:50:32.036Z,30.67
2017-11-20T12:53:00.883Z,27.97
2017-11-20T12:55:29.786Z,33.10
2017-11-20T12:57:59.576Z,30.77
2017-11-20T13:00:28.548Z,29.43
2017-11-20T13:02:57.447Z,27.60
2017-11-20T13:05:26.294Z,27.00
2017-11-20T13:07:55.150Z,27.87
2017-11-20T13:10:24.020Z,32.23
2017-11-20T13:12:52.891Z,28.80
2017-11-20T13:15:21.757Z,30.33
2017-11-20T13:17:51.273Z,31.60
2017-11-20T13:20:20.114Z,29.67
2017-11-20T13:22:48.949Z,28.87
2017-11-20T13:25:17.826Z,29.73
2017-11-20T13:27:46.683Z,27.30
2017-11-20T13:30:15.537Z,25.63
2017-11-20T13:32:44.401Z,24.30
2017-11-20T13:35:13.266Z,25.77
2017-11-20T13:37:42.108Z,26.10
2017-11-20T13:40:11.025Z,25.57
2017-11-20T13:42:39.883Z,23.13
2017-11-20T13:45:08.740Z,26.57
2017-11-20T13:47:37.626Z,25.97
2017-11-20T13:50:06.814Z,24.93
2017-11-20T13:52:35.661Z,23.73
2017-11-20T13:55:05.100Z,25.00
2017-11-20T13:57:33.951Z,24.57
2017-11-20T14:00:03.056Z,24.97
2017-11-20T14:02:32.018Z,27.33
2017-11-20T14:05:02.373Z,27.20
2017-11-20T14:07:31.233Z,24.60
2017-11-20T14:10:00.154Z,23.40
2017-11-20T14:12:29.792Z,25.47
2017-11-20T14:14:58.652Z,24.47
2017-11-20T14:17:27.590Z,31.77
2017-11-20T14:19:56.442Z,38.70
2017-11-20T14:22:25.285Z,26.10
2017-11-20T14:24:54.923Z,21.97
2017-11-20T14:27:23.802Z,24.00
2017-11-20T14:29:52.753Z,50.20
2017-11-20T14:32:22.228Z,25.90
2017-11-20T14:34:51.074Z,29.23
2017-11-20T14:37:19.934Z,28.87
2017-11-20T14:39:49.678Z,33.23
2017-11-20T14:42:18.543Z,25.43
2017-11-20T14:44:48.083Z,27.00
2017-11-20T14:47:16.946Z,27.97
2017-11-20T14:49:46.613Z,30.93
2017-11-20T14:52:16.022Z,30.37
2017-11-20T14:54:46.309Z,29.60
2017-11-20T14:57:15.461Z,29.10
2017-11-20T14:59:44.328Z,32.70
2017-11-20T15:02:13.246Z,33.90
2017-11-20T15:04:42.109Z,33.73
2017-11-20T15:07:10.955Z,35.27
2017-11-20T15:09:39.808Z,37.73
2017-11-20T15:12:08.674Z,33.83
2017-11-20T15:14:37.525Z,33.13
2017-11-20T15:17:06.395Z,36.97
2017-11-20T15:19:35.283Z,45.73
2017-11-20T15:22:04.123Z,36.43
2017-11-20T15:24:32.988Z,38.00
2017-11-20T15:27:01.828Z,37.93
2017-11-20T15:29:30.718Z,42.60
2017-11-20T15:32:00.082Z,43.87
2017-11-20T15:34:28.991Z,45.87
2017-11-20T15:36:57.863Z,42.63
2017-11-20T15:39:26.733Z,44.57
2017-11-20T15:41:56.288Z,43.70
2017-11-20T15:44:25.209Z,43.00
2017-11-20T15:46:54.077Z,47.00
2017-11-20T15:49:22.940Z,47.53
2017-11-20T15:51:51.777Z,40.93
2017-11-20T15:54:20.675Z,45.03
2017-11-20T15:56:49.523Z,44.73
2017-11-20T15:59:18.393Z,49.13
2017-11-20T16:01:47.290Z,48.17
2017-11-20T16:04:16.131Z,47.33
2017-11-20T16:06:44.991Z,51.17
2017-11-20T16:09:13.893Z,55.27
2017-11-20T16:11:42.746Z,58.67
2017-11-20T16:14:11.608Z,57.40
2017-11-20T16:16:40.479Z,53.80
2017-11-20T16:19:10.140Z,56.40
2017-11-20T16:21:38.996Z,51.87
2017-11-20T16:24:07.896Z,62.07
2017-11-20T16:26:36.747Z,53.80
2017-11-20T16:29:05.677Z,64.47
2017-11-20T16:31:34.565Z,60.83
2017-11-20T16:34:03.431Z,60.27
2017-11-20T16:36:32.310Z,58.97
2017-11-20T16:39:01.173Z,49.10
2017-11-20T16:41:30.015Z,90.23
2017-11-20T16:43:58.947Z,63.57
2017-11-20T16:46:27.793Z,55.73
2017-11-20T16:48:57.326Z,58.37
2017-11-20T16:51:26.165Z,57.87
2017-11-20T16:53:55.839Z,60.77
2017-11-20T16:56:24.681Z,62.03
2017-11-20T16:58:59.349Z,58.87
2017-11-20T17:01:34.056Z,60.37
2017-11-20T17:04:02.949Z,56.97
2017-11-20T17:06:31.791Z,66.47
2017-11-20T17:09:00.671Z,58.73
2017-11-20T17:11:29.590Z,58.37
2017-11-20T17:13:58.444Z,55.57
2017-11-20T17:16:27.443Z,63.07
2017-11-20T17:18:56.329Z,57.03
2017-11-20T17:21:25.190Z,52.53
2017-11-20T17:23:54.060Z,53.77
2017-11-20T17:26:22.948Z,55.27
2017-11-20T17:28:51.799Z,51.77
2017-11-20T17:31:20.649Z,48.53
2017-11-20T17:33:49.501Z,51.00
2017-11-20T17:36:18.348Z,50.33
2017-11-20T17:38:47.200Z,45.50
2017-11-20T17:41:16.128Z,43.50
2017-11-20T17:43:45.001Z,44.10
2017-11-20T17:46:13.845Z,38.80
2017-11-20T17:48:42.705Z,38.97
2017-11-20T17:51:12.716Z,38.40
2017-11-20T17:53:42.443Z,40.13
2017-11-20T17:56:11.323Z,40.77
2017-11-20T17:58:40.169Z,41.00
2017-11-20T18:01:09.049Z,37.67
2017-11-20T18:03:38.035Z,35.33
2017-11-20T18:06:07.632Z,39.97
2017-11-20T18:08:36.958Z,40.43
2017-11-20T18:11:05.797Z,42.50
2017-11-20T18:13:34.669Z,83.73
2017-11-20T18:16:03.600Z,61.03
2017-11-20T18:18:32.447Z,56.77
2017-11-20T18:21:01.313Z,42.87
2017-11-20T18:23:31.087Z,47.33
2017-11-20T18:26:00.489Z,61.87
2017-11-20T18:28:29.337Z,48.57
2017-11-20T18:30:58.229Z,40.87
2017-11-20T18:33:27.079Z,45.40
2017-11-20T18:35:55.982Z,46.23
2017-11-20T18:38:25.657Z,49.17
2017-11-20T18:40:54.506Z,43.97
2017-11-20T18:43:23.350Z,45.53
2017-11-20T18:45:52.880Z,47.70
2017-11-20T18:48:21.722Z,46.67
2017-11-20T18:50:50.585Z,46.23
2017-11-20T18:53:19.587Z,42.43
2017-11-20T18:55:48.433Z,33.57
2017-11-20T18:58:17.377Z,42.53
2017-11-20T19:00:51.969Z,34.73
2017-11-20T19:03:27.575Z,31.87
2017-11-20T19:06:02.866Z,35.33
2017-11-20T19:08:37.423Z,39.97
2017-11-20T19:11:07.487Z,32.90
2017-11-20T19:13:36.359Z,30.80
2017-11-20T19:16:05.217Z,24.07
2017-11-20T19:18:34.096Z,25.00
2017-11-20T19:21:02.996Z,27.03
2017-11-20T19:23:31.841Z,25.90
2017-11-20T19:26:00.745Z,27.23
2017-11-20T19:28:29.672Z,27.63
2017-11-20T19:30:58.525Z,29.13
2017-11-20T19:33:27.405Z,31.83
2017-11-20T19:35:57.333Z,35.33
2017-11-20T19:38:26.212Z,30.10
2017-11-20T19:40:55.607Z,37.60
2017-11-20T19:43:24.475Z,35.77
2017-11-20T19:45:53.344Z,36.57
2017-11-20T19:48:22.244Z,40.10
2017-11-20T19:50:51.102Z,43.13
2017-11-20T19:53:20.018Z,45.30
2017-11-20T19:55:48.890Z,40.10
2017-11-20T19:58:17.879Z,47.33
2017-11-20T20:00:46.722Z,50.10
2017-11-20T20:03:15.644Z,51.07
2017-11-20T20:05:44.501Z,51.90
2017-11-20T20:08:13.358Z,56.60
2017-11-20T20:10:42.251Z,53.70
2017-11-20T20:13:11.109Z,63.23
2017-11-20T20:15:43.679Z,68.27
2017-11-20T20:18:12.865Z,58.83
2017-11-20T20:20:41.849Z,58.57
2017-11-20T20:23:10.708Z,60.10
2017-11-20T20:25:39.677Z,68.10
2017-11-20T20:28:08.520Z,63.17
2017-11-20T20:30:37.464Z,61.13
2017-11-20T20:33:06.402Z,66.23
2017-11-20T20:35:35.256Z,72.73
2017-11-20T20:38:04.728Z,74.50
2017-11-20T20:40:33.700Z,72.67
2017-11-20T20:43:02.560Z,60.77
2017-11-20T20:45:31.433Z,71.50
2017-11-20T20:48:00.358Z,74.70
2017-11-20T20:50:29.201Z,68.83
2017-11-20T20:52:58.087Z,67.57
2017-11-20T20:55:26.943Z,71.40
2017-11-20T20:57:56.517Z,64.87
2017-11-20T21:00:25.374Z,69.77
2017-11-20T21:02:54.217Z,73.77
2017-11-20T21:05:23.077Z,74.13
2017-11-20T21:07:51.983Z,78.10
2017-11-20T21:10:26.592Z,69.90
2017-11-20T21:12:55.496Z,78.43
2017-11-20T21:15:24.377Z,75.57
2017-11-20T21:17:54.164Z,83.40
2017-11-20T21:20:23.029Z,74.03
2017-11-20T21:22:51.872Z,77.53
2017-11-20T21:25:20.729Z,76.43
2017-11-20T21:27:49.600Z,76.70
2017-11-20T21:30:19.079Z,78.37
2017-11-20T21:32:48.067Z,74.60
2017-11-20T21:35:16.925Z,80.13
2017-11-20T21:37:45.890Z,78.77
2017-11-20T21:40:15.240Z,76.83
2017-11-20T21:42:44.290Z,83.43
2017-11-20T21:45:14.118Z,85.67
2017-11-20T21:47:43.012Z,77.33
2017-11-20T21:50:11.882Z,85.40
2017-11-20T21:52:40.725Z,80.90
2017-11-20T21:55:09.973Z,79.77
2017-11-20T21:57:39.743Z,79.93
2017-11-20T22:00:08.590Z,81.43
2017-11-20T22:02:37.429Z,80.63
2017-11-20T22:05:06.298Z,82.57
2017-11-20T22:07:35.146Z,89.00
2017-11-20T22:10:04.492Z,79.23
2017-11-20T22:12:39.161Z,84.47
2017-11-20T22:15:08.013Z,82.80
2017-11-20T22:17:37.585Z,83.30
2017-11-20T22:20:06.528Z,81.87
2017-11-20T22:22:35.391Z,78.17
2017-11-20T22:25:04.237Z,80.07
2017-11-20T22:27:33.111Z,80.90
2017-11-20T22:30:02.012Z,79.27
2017-11-20T22:32:31.142Z,86.13
2017-11-20T22:35:00.074Z,83.90
2017-11-20T22:37:28.915Z,85.00
2017-11-20T22:39:57.777Z,79.33
2017-11-20T22:42:26.845Z,85.53
2017-11-20T22:44:55.734Z,81.07
2017-11-20T22:47:24.921Z,81.40
2017-11-20T22:49:53.783Z,84.83
2017-11-20T22:52:22.635Z,80.80
2017-11-20T22:54:51.688Z,84.50
2017-11-20T22:57:21.458Z,84.07
2017-11-20T22:59:50.707Z,85.13
2017-11-20T23:02:19.542Z,84.23
2017-11-20T23:04:48.424Z,72.83
2017-11-20T23:07:17.268Z,80.33
2017-11-20T23:09:46.113Z,80.53
2017-11-20T23:12:15.023Z,77.93
2017-11-20T23:14:43.867Z,79.53
2017-11-20T23:17:12.753Z,82.13
2017-11-20T23:19:41.883Z,78.40
2017-11-20T23:22:10.738Z,65.80
2017-11-20T23:24:39.590Z,69.70
2017-11-20T23:27:08.496Z,69.87
2017-11-20T23:29:38.736Z,70.73
2017-11-20T23:32:07.600Z,70.07
2017-11-20T23:34:36.469Z,68.60
2017-11-20T23:37:05.382Z,70.90
2017-11-20T23:39:34.234Z,70.07
2017-11-20T23:42:03.124Z,66.20
2017-11-20T23:44:31.972Z,76.07
2017-11-20T23:47:00.816Z,68.80
2017-11-20T23:49:29.705Z,69.00
2017-11-20T23:51:58.551Z,72.77
2017-11-20T23:54:33.239Z,80.47
2017-11-20T23:57:02.146Z,75.10
2017-11-20T23:59:31.044Z,73.27
